Time;durP1;ratioP1;P1;durP2;ratioP2;P2;SDS_P1;SDS_P2;PMS_P1;PMS_P2;Temp;Humidity;BMP_temperature;BMP_pressure;BME280_temperature;BME280_humidity;BME280_pressure;Samples;Min_cycle;Max_cycle;Signal;HPM_P1;HPM_P2
2020/12/21 00:01:56;;;;;;;37.15;21.27;;;;;;;;;;5072078;28;19978;-53
2020/12/21 00:04:22;;;;;;;41.40;21.42;;;;;;;;;;5072037;28;20032;-52
2020/12/21 00:06:57;;;;;;;38.20;21.25;;;;;;;;;;5072043;28;20028;-53
2020/12/21 00:09:23;;;;;;;34.20;19.30;;;;;;;;;;5070672;28;20042;-53
2020/12/21 00:11:50;;;;;;;36.67;19.35;;;;;;;;;;5071976;28;20473;-54
2020/12/21 00:14:16;;;;;;;36.45;20.02;;;;;;;;;;5071942;28;20016;-53
2020/12/21 00:16:44;;;;;;;38.80;19.50;;;;;;;;;;5069438;28;20105;-53
2020/12/21 00:19:10;;;;;;;35.22;19.08;;;;;;;;;;5071870;28;20043;-54
2020/12/21 00:21:37;;;;;;;33.17;19.15;;;;;;;;;;5071706;28;20037;-53
2020/12/21 00:24:04;;;;;;;40.03;22.65;;;;;;;;;;5071686;28;20082;-54
2020/12/21 00:26:30;;;;;;;35.92;18.92;;;;;;;;;;5071214;28;20125;-53
2020/12/21 00:28:56;;;;;;;31.30;16.90;;;;;;;;;;5071273;28;20035;-55
2020/12/21 00:31:26;;;;;;;29.55;17.80;;;;;;;;;;5071596;28;20028;-55
2020/12/21 00:33:53;;;;;;;28.40;16.70;;;;;;;;;;5071197;28;20059;-54
2020/12/21 00:36:19;;;;;;;32.13;17.77;;;;;;;;;;5071815;28;20017;-55
2020/12/21 00:38:45;;;;;;;32.00;16.92;;;;;;;;;;5071472;28;20507;-55
2020/12/21 00:41:15;;;;;;;25.55;14.98;;;;;;;;;;5071045;28;20040;-54
2020/12/21 00:43:41;;;;;;;35.03;18.08;;;;;;;;;;5071187;28;20024;-54
2020/12/21 00:46:11;;;;;;;44.65;19.67;;;;;;;;;;5071801;28;20016;-55
2020/12/21 00:48:37;;;;;;;30.35;16.73;;;;;;;;;;5072156;28;20024;-53
2020/12/21 00:51:03;;;;;;;30.80;16.85;;;;;;;;;;5072164;28;20028;-54
2020/12/21 00:53:29;;;;;;;32.63;17.20;;;;;;;;;;5070841;28;20044;-54
2020/12/21 00:55:56;;;;;;;28.55;15.68;;;;;;;;;;5067896;28;20109;-55
2020/12/21 00:58:22;;;;;;;28.10;15.82;;;;;;;;;;5071650;28;20021;-53
2020/12/21 01:00:48;;;;;;;27.77;15.48;;;;;;;;;;5063546;28;20032;-54
2020/12/21 01:03:15;;;;;;;31.60;16.58;;;;;;;;;;5071982;28;20126;-54
2020/12/21 01:05:41;;;;;;;27.80;15.95;;;;;;;;;;5058970;28;20035;-52
2020/12/21 01:08:07;;;;;;;32.70;16.65;;;;;;;;;;5058055;28;20096;-54
2020/12/21 01:10:33;;;;;;;32.40;17.35;;;;;;;;;;5071816;28;20078;-54
2020/12/21 01:12:59;;;;;;;32.13;17.40;;;;;;;;;;5071673;28;20150;-54
2020/12/21 01:15:25;;;;;;;29.02;15.57;;;;;;;;;;5071517;28;20056;-54
2020/12/21 01:17:51;;;;;;;26.88;14.95;;;;;;;;;;5071917;28;20369;-54
2020/12/21 01:20:17;;;;;;;28.25;15.32;;;;;;;;;;5069446;28;20397;-54
2020/12/21 01:22:43;;;;;;;36.63;17.80;;;;;;;;;;5071338;28;20020;-53
2020/12/21 01:25:09;;;;;;;27.88;14.65;;;;;;;;;;5071075;28;20047;-54
2020/12/21 01:27:35;;;;;;;36.08;18.10;;;;;;;;;;5071617;28;20095;-54
2020/12/21 01:30:01;;;;;;;43.13;21.42;;;;;;;;;;5068225;28;20031;-54
2020/12/21 01:32:27;;;;;;;35.42;19.35;;;;;;;;;;5071758;28;20048;-55
2020/12/21 01:34:53;;;;;;;38.03;19.25;;;;;;;;;;5071171;28;20047;-54
2020/12/21 01:37:19;;;;;;;58.90;24.30;;;;;;;;;;5071420;28;20025;-54
2020/12/21 01:39:48;;;;;;;40.53;19.23;;;;;;;;;;5067439;28;20039;-53
2020/12/21 01:42:23;;;;;;;34.22;17.20;;;;;;;;;;5052855;28;20476;-55
2020/12/21 01:44:49;;;;;;;35.85;19.38;;;;;;;;;;5051012;28;20032;-54
2020/12/21 01:47:20;;;;;;;38.63;18.52;;;;;;;;;;5065921;28;20380;-52
2020/12/21 01:49:46;;;;;;;38.42;19.30;;;;;;;;;;5071322;28;20039;-53
2020/12/21 01:52:15;;;;;;;39.42;21.52;;;;;;;;;;5071205;28;20044;-54
2020/12/21 01:54:42;;;;;;;45.58;21.77;;;;;;;;;;5069128;28;20468;-53
2020/12/21 01:57:08;;;;;;;39.78;18.77;;;;;;;;;;5070800;28;20052;-53
2020/12/21 01:59:34;;;;;;;41.42;19.25;;;;;;;;;;5073723;28;20044;-53
2020/12/21 02:02:00;;;;;;;32.10;16.15;;;;;;;;;;5074939;28;20016;-53
2020/12/21 02:04:26;;;;;;;26.15;14.65;;;;;;;;;;5074991;28;20028;-53
2020/12/21 02:06:54;;;;;;;31.42;16.33;;;;;;;;;;5074672;28;20082;-53
2020/12/21 02:09:20;;;;;;;31.52;16.30;;;;;;;;;;5074715;28;20107;-51
2020/12/21 02:11:46;;;;;;;35.28;17.48;;;;;;;;;;5074804;28;20021;-52
2020/12/21 02:14:12;;;;;;;46.75;21.85;;;;;;;;;;5071859;28;20038;-54
2020/12/21 02:16:38;;;;;;;28.17;15.15;;;;;;;;;;5074827;28;20477;-53
2020/12/21 02:19:05;;;;;;;28.48;14.75;;;;;;;;;;5074616;28;20032;-54
2020/12/21 02:21:31;;;;;;;30.20;16.98;;;;;;;;;;5074384;28;20025;-52
2020/12/21 02:23:57;;;;;;;31.08;15.93;;;;;;;;;;5074234;28;20491;-51
2020/12/21 02:26:23;;;;;;;25.67;14.40;;;;;;;;;;5074065;28;20027;-51
2020/12/21 02:28:57;;;;;;;28.80;14.40;;;;;;;;;;5074366;28;20094;-52
2020/12/21 02:31:23;;;;;;;26.55;14.40;;;;;;;;;;5071589;28;20032;-51
2020/12/21 02:33:49;;;;;;;25.35;14.05;;;;;;;;;;5054991;28;20092;-55
2020/12/21 02:36:15;;;;;;;28.90;15.68;;;;;;;;;;5054434;28;20108;-53
2020/12/21 02:38:41;;;;;;;25.02;13.88;;;;;;;;;;5054101;28;20060;-55
2020/12/21 02:41:08;;;;;;;29.23;14.98;;;;;;;;;;5057575;28;20133;-52
2020/12/21 02:43:34;;;;;;;28.15;15.30;;;;;;;;;;5058836;28;20029;-54
2020/12/21 02:46:00;;;;;;;24.85;14.18;;;;;;;;;;5056230;28;20013;-54
2020/12/21 02:48:26;;;;;;;25.75;13.77;;;;;;;;;;5056625;28;20032;-53
2020/12/21 02:50:52;;;;;;;26.10;14.60;;;;;;;;;;5055833;28;20495;-51
2020/12/21 02:53:19;;;;;;;34.60;15.02;;;;;;;;;;5053687;28;20035;-51
2020/12/21 02:55:45;;;;;;;28.60;14.50;;;;;;;;;;5058737;28;20504;-52
2020/12/21 02:58:11;;;;;;;31.48;15.60;;;;;;;;;;5052772;28;20071;-51
2020/12/21 03:00:37;;;;;;;28.15;14.07;;;;;;;;;;5057274;28;20044;-52
2020/12/21 03:03:04;;;;;;;25.17;14.18;;;;;;;;;;5054679;28;20017;-53
2020/12/21 03:05:33;;;;;;;27.77;15.65;;;;;;;;;;5056655;28;20017;-51
2020/12/21 03:08:00;;;;;;;28.98;14.75;;;;;;;;;;5054417;28;20028;-53
2020/12/21 03:10:27;;;;;;;25.50;14.35;;;;;;;;;;5061425;28;20029;-54
2020/12/21 03:12:53;;;;;;;28.95;14.73;;;;;;;;;;5067182;28;20056;-52
2020/12/21 03:15:20;;;;;;;28.42;15.63;;;;;;;;;;5073105;28;20032;-52
2020/12/21 03:17:46;;;;;;;33.20;16.83;;;;;;;;;;5073697;28;20030;-51
2020/12/21 03:20:12;;;;;;;32.00;17.20;;;;;;;;;;5073555;28;20038;-53
2020/12/21 03:22:38;;;;;;;32.90;17.42;;;;;;;;;;5073462;28;20025;-53
2020/12/21 03:25:05;;;;;;;33.72;18.30;;;;;;;;;;5073361;28;20379;-52
2020/12/21 03:27:31;;;;;;;35.85;18.13;;;;;;;;;;5055511;28;20476;-51
2020/12/21 03:29:58;;;;;;;30.60;17.40;;;;;;;;;;5059186;28;20032;-52
2020/12/21 03:32:24;;;;;;;34.40;18.23;;;;;;;;;;5066260;28;20074;-54
2020/12/21 03:34:52;;;;;;;39.95;20.45;;;;;;;;;;5073144;28;20027;-54
2020/12/21 03:37:18;;;;;;;35.65;18.65;;;;;;;;;;5073302;28;20498;-53
2020/12/21 03:39:44;;;;;;;36.15;18.80;;;;;;;;;;5069000;28;20044;-53
2020/12/21 03:42:10;;;;;;;39.88;21.27;;;;;;;;;;5061930;28;20039;-55
2020/12/21 03:44:36;;;;;;;52.35;24.05;;;;;;;;;;5073052;28;20026;-52
2020/12/21 03:47:02;;;;;;;48.92;24.20;;;;;;;;;;5073193;28;20059;-54
2020/12/21 03:49:28;;;;;;;48.88;24.45;;;;;;;;;;5073053;28;20051;-53
2020/12/21 03:51:55;;;;;;;43.05;23.40;;;;;;;;;;5073216;28;20384;-53
2020/12/21 03:54:21;;;;;;;41.75;22.48;;;;;;;;;;5072345;28;20108;-52
2020/12/21 03:56:47;;;;;;;45.70;23.27;;;;;;;;;;5071088;28;20566;-53
2020/12/21 03:59:13;;;;;;;40.75;22.30;;;;;;;;;;5072742;28;20060;-53
2020/12/21 04:01:39;;;;;;;40.03;20.10;;;;;;;;;;5072873;28;20032;-53
2020/12/21 04:04:06;;;;;;;40.00;20.75;;;;;;;;;;5072894;28;20024;-53
2020/12/21 04:06:32;;;;;;;44.88;22.98;;;;;;;;;;5072610;28;20480;-55
2020/12/21 04:08:58;;;;;;;48.80;23.58;;;;;;;;;;5071749;28;20492;-53
2020/12/21 04:11:24;;;;;;;46.63;22.55;;;;;;;;;;5072597;28;20094;-55
2020/12/21 04:13:50;;;;;;;56.13;26.80;;;;;;;;;;5072406;28;20118;-55
2020/12/21 04:16:16;;;;;;;39.85;21.85;;;;;;;;;;5072362;28;20024;-53
2020/12/21 04:18:42;;;;;;;82.10;34.47;;;;;;;;;;5072395;28;20044;-53
2020/12/21 04:21:09;;;;;;;86.32;37.42;;;;;;;;;;5071590;28;20031;-53
2020/12/21 04:23:35;;;;;;;47.47;24.10;;;;;;;;;;5072580;28;20032;-53
2020/12/21 04:26:01;;;;;;;44.28;22.50;;;;;;;;;;5072416;28;20505;-53
2020/12/21 04:28:27;;;;;;;54.83;30.33;;;;;;;;;;5072064;28;20053;-53
2020/12/21 04:30:53;;;;;;;60.72;29.55;;;;;;;;;;5072361;28;20059;-53
2020/12/21 04:33:19;;;;;;;63.70;29.92;;;;;;;;;;5072193;28;20027;-54
2020/12/21 04:35:45;;;;;;;68.00;29.95;;;;;;;;;;5072089;28;20036;-55
2020/12/21 04:38:11;;;;;;;44.40;23.70;;;;;;;;;;5071932;28;20028;-53
2020/12/21 04:40:37;;;;;;;45.40;23.70;;;;;;;;;;5072115;28;20429;-53
2020/12/21 04:43:03;;;;;;;48.40;23.60;;;;;;;;;;5071863;28;20089;-54
2020/12/21 04:45:30;;;;;;;46.03;23.58;;;;;;;;;;5072081;28;20526;-53
2020/12/21 04:47:57;;;;;;;42.58;22.40;;;;;;;;;;5072037;28;20109;-53
2020/12/21 04:50:30;;;;;;;44.28;22.40;;;;;;;;;;5071747;28;20426;-53
2020/12/21 04:52:56;;;;;;;57.53;25.63;;;;;;;;;;5071752;28;20162;-54
2020/12/21 04:55:22;;;;;;;43.38;21.77;;;;;;;;;;5071552;28;20043;-53
2020/12/21 04:57:58;;;;;;;40.33;21.42;;;;;;;;;;5071545;28;20027;-53
2020/12/21 05:00:25;;;;;;;36.55;19.45;;;;;;;;;;5071652;28;20044;-53
2020/12/21 05:02:52;;;;;;;36.83;19.60;;;;;;;;;;5071884;28;20029;-54
2020/12/21 05:05:28;;;;;;;37.78;20.50;;;;;;;;;;5071980;28;20106;-52
2020/12/21 05:07:54;;;;;;;32.10;17.65;;;;;;;;;;5071629;28;20437;-53
2020/12/21 05:10:20;;;;;;;32.38;16.95;;;;;;;;;;5071905;28;20044;-53
2020/12/21 05:12:46;;;;;;;30.15;15.75;;;;;;;;;;5071588;28;20039;-55
2020/12/21 05:15:16;;;;;;;25.58;13.73;;;;;;;;;;5071617;28;20024;-51
2020/12/21 05:17:42;;;;;;;23.73;13.13;;;;;;;;;;5071309;28;20031;-54
2020/12/21 05:20:08;;;;;;;21.10;11.98;;;;;;;;;;5071201;28;20063;-53
2020/12/21 05:22:34;;;;;;;21.10;11.45;;;;;;;;;;5071100;28;20056;-53
2020/12/21 05:25:05;;;;;;;21.83;12.38;;;;;;;;;;5071442;28;20021;-53
2020/12/21 05:27:31;;;;;;;25.02;13.07;;;;;;;;;;5071973;28;20024;-53
2020/12/21 05:29:57;;;;;;;131.65;43.78;;;;;;;;;;5071780;28;20024;-53
2020/12/21 05:32:23;;;;;;;74.00;27.08;;;;;;;;;;5071925;28;20025;-54
2020/12/21 05:34:50;;;;;;;86.30;29.25;;;;;;;;;;5074653;28;20082;-52
2020/12/21 05:37:17;;;;;;;23.08;13.30;;;;;;;;;;5075102;28;20059;-53
2020/12/21 05:39:50;;;;;;;24.52;13.40;;;;;;;;;;5075237;28;20470;-53
2020/12/21 05:42:16;;;;;;;33.63;18.20;;;;;;;;;;5075407;28;20020;-55
2020/12/21 05:44:51;;;;;;;41.63;22.42;;;;;;;;;;5075256;28;20112;-53
2020/12/21 05:47:17;;;;;;;21.55;12.52;;;;;;;;;;5075471;28;20082;-53
2020/12/21 05:49:51;;;;;;;20.90;12.10;;;;;;;;;;5075373;28;20052;-53
2020/12/21 05:52:22;;;;;;;20.65;11.85;;;;;;;;;;5075327;28;20032;-53
2020/12/21 05:54:48;;;;;;;21.77;11.90;;;;;;;;;;5075310;28;20036;-53
2020/12/21 05:57:14;;;;;;;22.35;12.82;;;;;;;;;;5075069;28;20040;-56
2020/12/21 05:59:41;;;;;;;31.42;16.70;;;;;;;;;;5075520;28;20497;-53
2020/12/21 06:02:07;;;;;;;26.38;13.98;;;;;;;;;;5074340;28;20028;-53
2020/12/21 06:04:41;;;;;;;25.55;14.35;;;;;;;;;;5074883;28;20111;-53
2020/12/21 06:07:12;;;;;;;24.13;13.35;;;;;;;;;;5074304;28;20166;-53
2020/12/21 06:09:38;;;;;;;27.97;15.17;;;;;;;;;;5075132;28;20017;-53
2020/12/21 06:12:04;;;;;;;28.88;15.68;;;;;;;;;;5074990;28;20302;-53
2020/12/21 06:14:33;;;;;;;28.23;16.38;;;;;;;;;;5074678;28;20110;-51
2020/12/21 06:16:59;;;;;;;25.75;14.43;;;;;;;;;;5074402;28;20482;-53
2020/12/21 06:19:25;;;;;;;28.02;15.18;;;;;;;;;;5074715;28;20548;-53
2020/12/21 06:21:56;;;;;;;25.83;14.52;;;;;;;;;;5074823;28;20545;-53
2020/12/21 06:24:23;;;;;;;25.00;14.60;;;;;;;;;;5074810;28;20111;-50
2020/12/21 06:26:49;;;;;;;24.38;14.10;;;;;;;;;;5074869;28;20040;-50
2020/12/21 06:29:19;;;;;;;27.85;14.63;;;;;;;;;;5074659;28;20055;-50
2020/12/21 06:31:45;;;;;;;24.35;13.90;;;;;;;;;;5074876;28;20025;-52
2020/12/21 06:34:16;;;;;;;23.85;13.25;;;;;;;;;;5074708;28;20029;-50
2020/12/21 06:36:43;;;;;;;29.73;15.98;;;;;;;;;;5060879;28;20024;-51
2020/12/21 06:39:09;;;;;;;36.00;17.25;;;;;;;;;;5074526;28;20029;-49
2020/12/21 06:41:36;;;;;;;29.55;15.88;;;;;;;;;;5074420;28;20105;-53
2020/12/21 06:44:08;;;;;;;35.67;19.30;;;;;;;;;;5072826;28;20042;-54
2020/12/21 06:46:35;;;;;;;40.38;20.75;;;;;;;;;;5066024;28;20028;-54
2020/12/21 06:49:01;;;;;;;39.55;21.55;;;;;;;;;;5074297;28;20369;-53
2020/12/21 06:51:27;;;;;;;43.60;26.95;;;;;;;;;;5074229;28;20058;-55
2020/12/21 06:54:05;;;;;;;48.28;28.30;;;;;;;;;;5073928;28;20368;-54
2020/12/21 06:56:31;;;;;;;91.18;50.15;;;;;;;;;;5073868;28;20057;-53
2020/12/21 06:58:58;;;;;;;74.25;38.08;;;;;;;;;;5074043;28;20379;-53
2020/12/21 07:01:25;;;;;;;48.47;28.08;;;;;;;;;;5074048;28;20070;-53
2020/12/21 07:03:51;;;;;;;45.38;25.33;;;;;;;;;;5073704;28;20028;-53
2020/12/21 07:06:18;;;;;;;54.20;31.05;;;;;;;;;;5074173;28;20125;-53
2020/12/21 07:08:44;;;;;;;48.95;27.25;;;;;;;;;;5074008;28;20028;-53
2020/12/21 07:11:17;;;;;;;73.75;36.95;;;;;;;;;;5073873;28;20078;-53
2020/12/21 07:13:43;;;;;;;47.47;25.27;;;;;;;;;;5073844;28;20035;-54
2020/12/21 07:16:10;;;;;;;61.80;31.20;;;;;;;;;;5073723;28;20024;-55
2020/12/21 07:18:36;;;;;;;87.32;47.90;;;;;;;;;;5073425;28;20035;-54
2020/12/21 07:21:06;;;;;;;59.83;31.15;;;;;;;;;;5073481;28;20066;-54
2020/12/21 07:23:32;;;;;;;76.60;41.63;;;;;;;;;;5073532;28;20028;-54
2020/12/21 07:25:58;;;;;;;66.55;36.53;;;;;;;;;;5073263;28;20037;-53
2020/12/21 07:28:24;;;;;;;54.72;28.50;;;;;;;;;;5073514;28;20032;-55
2020/12/21 07:30:51;;;;;;;69.40;38.15;;;;;;;;;;5073302;28;20021;-53
2020/12/21 07:33:17;;;;;;;42.45;24.95;;;;;;;;;;5073073;28;20035;-54
2020/12/21 07:35:44;;;;;;;42.83;25.45;;;;;;;;;;5073443;28;20025;-54
2020/12/21 07:38:11;;;;;;;39.90;20.52;;;;;;;;;;5073083;28;20063;-54
2020/12/21 07:40:38;;;;;;;33.88;18.15;;;;;;;;;;5073066;28;20044;-53
2020/12/21 07:43:05;;;;;;;27.67;15.55;;;;;;;;;;5071656;28;20543;-53
2020/12/21 07:45:33;;;;;;;42.20;22.85;;;;;;;;;;5073222;28;20131;-53
2020/12/21 07:47:59;;;;;;;26.38;14.93;;;;;;;;;;5072707;28;20020;-54
2020/12/21 07:50:25;;;;;;;30.75;16.23;;;;;;;;;;5073061;28;20170;-54
2020/12/21 07:52:51;;;;;;;34.53;16.85;;;;;;;;;;5072822;28;20088;-53
2020/12/21 07:55:17;;;;;;;24.40;13.57;;;;;;;;;;5072168;28;20458;-54
2020/12/21 07:57:43;;;;;;;23.75;13.85;;;;;;;;;;5072118;28;20542;-53
2020/12/21 08:00:09;;;;;;;25.63;13.95;;;;;;;;;;5072597;28;20163;-55
2020/12/21 08:02:38;;;;;;;24.20;13.52;;;;;;;;;;5072466;28;20060;-54
2020/12/21 08:05:05;;;;;;;26.60;15.63;;;;;;;;;;5072550;28;20051;-53
2020/12/21 08:07:33;;;;;;;32.40;17.65;;;;;;;;;;5072863;28;20031;-53
2020/12/21 08:09:59;;;;;;;25.02;14.40;;;;;;;;;;5072348;28;20036;-53
2020/12/21 08:12:30;;;;;;;25.30;14.73;;;;;;;;;;5072640;28;20027;-53
2020/12/21 08:15:00;;;;;;;32.20;19.13;;;;;;;;;;5072135;28;20024;-55
2020/12/21 08:17:28;;;;;;;31.00;17.75;;;;;;;;;;5071975;28;20099;-55
2020/12/21 08:19:55;;;;;;;26.20;15.40;;;;;;;;;;5070449;28;20115;-54
2020/12/21 08:22:21;;;;;;;31.40;17.67;;;;;;;;;;5072293;28;20029;-53
2020/12/21 08:25:10;;;;;;;29.73;16.35;;;;;;;;;;5071847;28;20032;-54
2020/12/21 08:27:37;;;;;;;30.60;16.58;;;;;;;;;;5072278;28;20509;-55
2020/12/21 08:30:11;;;;;;;36.70;20.23;;;;;;;;;;5072128;28;20028;-55
2020/12/21 08:32:37;;;;;;;43.97;22.83;;;;;;;;;;5072136;28;20108;-54
2020/12/21 08:35:03;;;;;;;53.60;30.02;;;;;;;;;;5072030;28;20035;-54
2020/12/21 08:37:30;;;;;;;56.90;33.83;;;;;;;;;;5072215;28;20051;-53
2020/12/21 08:39:56;;;;;;;77.75;42.70;;;;;;;;;;5072203;28;20380;-52
2020/12/21 08:42:22;;;;;;;93.78;51.08;;;;;;;;;;5071984;28;20443;-53
2020/12/21 08:44:51;;;;;;;79.15;45.47;;;;;;;;;;5072295;28;20548;-54
2020/12/21 08:47:17;;;;;;;53.58;29.98;;;;;;;;;;5072171;28;20028;-54
2020/12/21 08:49:44;;;;;;;79.13;46.08;;;;;;;;;;5072305;28;20123;-54
2020/12/21 08:52:10;;;;;;;81.43;47.30;;;;;;;;;;5071948;28;20020;-53
2020/12/21 08:54:36;;;;;;;104.38;55.40;;;;;;;;;;5072069;28;20115;-53
2020/12/21 08:57:02;;;;;;;83.53;48.38;;;;;;;;;;5071854;28;20128;-55
2020/12/21 08:59:28;;;;;;;116.88;73.70;;;;;;;;;;5071808;28;20049;-55
2020/12/21 09:01:54;;;;;;;95.35;54.72;;;;;;;;;;5072150;28;20031;-53
2020/12/21 09:04:21;;;;;;;84.82;46.90;;;;;;;;;;5072054;28;20021;-53
2020/12/21 09:06:47;;;;;;;80.80;44.53;;;;;;;;;;5072215;28;20032;-53
2020/12/21 09:09:13;;;;;;;82.97;47.75;;;;;;;;;;5076057;28;20063;-54
2020/12/21 09:11:39;;;;;;;88.15;49.70;;;;;;;;;;5076198;28;20095;-53
2020/12/21 09:14:05;;;;;;;77.05;41.85;;;;;;;;;;5075908;28;20032;-54
2020/12/21 09:16:32;;;;;;;72.05;40.58;;;;;;;;;;5076210;28;20043;-54
2020/12/21 09:18:59;;;;;;;82.03;41.25;;;;;;;;;;5076227;28;20357;-53
2020/12/21 09:21:26;;;;;;;85.60;42.17;;;;;;;;;;5075858;28;20032;-53
2020/12/21 09:23:53;;;;;;;97.85;50.50;;;;;;;;;;5075756;28;20023;-53
2020/12/21 09:26:19;;;;;;;128.13;65.60;;;;;;;;;;5075671;28;20107;-53
2020/12/21 09:28:46;;;;;;;93.40;49.47;;;;;;;;;;5075750;28;20583;-55
2020/12/21 09:31:13;;;;;;;76.28;39.28;;;;;;;;;;5075701;28;20059;-54
2020/12/21 09:33:39;;;;;;;46.38;26.27;;;;;;;;;;5075679;28;20074;-53
2020/12/21 09:36:06;;;;;;;50.05;27.83;;;;;;;;;;5075621;28;20034;-54
2020/12/21 09:38:32;;;;;;;65.93;38.08;;;;;;;;;;5075541;28;20025;-53
2020/12/21 09:40:58;;;;;;;46.55;28.13;;;;;;;;;;5075698;28;20028;-55
2020/12/21 09:43:24;;;;;;;39.90;23.02;;;;;;;;;;5075316;28;20024;-53
2020/12/21 09:45:50;;;;;;;35.03;18.35;;;;;;;;;;5075593;28;20052;-53
2020/12/21 09:48:16;;;;;;;30.02;18.60;;;;;;;;;;5075312;28;20037;-55
2020/12/21 09:50:42;;;;;;;29.33;17.65;;;;;;;;;;5075405;28;20021;-55
2020/12/21 09:53:08;;;;;;;26.98;16.42;;;;;;;;;;5075303;28;20029;-53
2020/12/21 09:55:34;;;;;;;29.35;17.70;;;;;;;;;;5074780;28;20044;-55
2020/12/21 09:58:00;;;;;;;37.33;20.75;;;;;;;;;;5075095;28;20035;-54
2020/12/21 10:00:28;;;;;;;39.33;22.98;;;;;;;;;;5074845;28;20028;-55
2020/12/21 10:02:54;;;;;;;38.25;21.90;;;;;;;;;;5074918;28;20016;-53
2020/12/21 10:05:20;;;;;;;33.35;21.08;;;;;;;;;;5075096;28;20115;-53
2020/12/21 10:07:46;;;;;;;32.67;19.48;;;;;;;;;;5074727;28;20067;-54
2020/12/21 10:10:12;;;;;;;36.78;22.10;;;;;;;;;;5074707;28;20032;-53
2020/12/21 10:12:38;;;;;;;31.63;18.85;;;;;;;;;;5074607;28;20032;-56
2020/12/21 10:15:05;;;;;;;36.00;21.88;;;;;;;;;;5074809;28;20491;-55
2020/12/21 10:17:31;;;;;;;35.75;20.77;;;;;;;;;;5074561;28;20052;-55
2020/12/21 10:19:57;;;;;;;39.30;22.58;;;;;;;;;;5073555;28;20040;-54
2020/12/21 10:22:23;;;;;;;41.03;23.35;;;;;;;;;;5074703;28;20024;-53
2020/12/21 10:24:49;;;;;;;42.75;24.15;;;;;;;;;;5074281;28;20048;-55
2020/12/21 10:27:15;;;;;;;38.75;20.83;;;;;;;;;;5074700;28;20060;-53
2020/12/21 10:29:41;;;;;;;38.53;23.63;;;;;;;;;;5074271;28;20020;-53
2020/12/21 10:32:07;;;;;;;43.17;24.27;;;;;;;;;;5074450;28;20024;-54
2020/12/21 10:34:33;;;;;;;39.95;23.13;;;;;;;;;;5074363;28;20017;-53
2020/12/21 10:36:59;;;;;;;40.13;23.55;;;;;;;;;;5074464;28;20019;-52
2020/12/21 10:39:25;;;;;;;44.03;23.67;;;;;;;;;;5074222;28;20039;-53
2020/12/21 10:41:51;;;;;;;36.70;21.98;;;;;;;;;;5059441;28;20023;-53
2020/12/21 10:44:17;;;;;;;36.47;21.95;;;;;;;;;;5064950;28;20104;-54
2020/12/21 10:46:44;;;;;;;47.95;26.42;;;;;;;;;;5067372;28;20054;-53
2020/12/21 10:49:10;;;;;;;44.53;25.92;;;;;;;;;;5053864;28;20132;-51
2020/12/21 10:51:36;;;;;;;43.25;24.27;;;;;;;;;;5055330;28;20021;-53
2020/12/21 10:54:02;;;;;;;42.22;23.50;;;;;;;;;;5056051;28;20066;-55
2020/12/21 10:56:28;;;;;;;49.42;27.60;;;;;;;;;;5053709;28;20045;-53
2020/12/21 10:58:58;;;;;;;63.63;34.00;;;;;;;;;;5054077;28;20473;-53
2020/12/21 11:01:24;;;;;;;57.55;30.67;;;;;;;;;;5061006;28;20025;-53
2020/12/21 11:03:50;;;;;;;50.95;26.83;;;;;;;;;;5074142;28;20104;-55
2020/12/21 11:06:19;;;;;;;47.53;26.27;;;;;;;;;;5058188;28;20533;-53
2020/12/21 11:08:45;;;;;;;47.88;26.92;;;;;;;;;;5065936;28;20016;-54
2020/12/21 11:11:11;;;;;;;48.10;28.60;;;;;;;;;;5073138;28;20060;-53
2020/12/21 11:13:41;;;;;;;41.97;25.27;;;;;;;;;;5073093;28;20069;-55
2020/12/21 11:16:09;;;;;;;42.53;24.08;;;;;;;;;;5073287;28;20029;-52
2020/12/21 11:18:35;;;;;;;53.45;28.70;;;;;;;;;;5073738;28;20077;-55
2020/12/21 11:21:01;;;;;;;49.42;26.40;;;;;;;;;;5073183;28;20068;-53
2020/12/21 11:23:27;;;;;;;47.20;25.23;;;;;;;;;;5072825;28;20027;-54
2020/12/21 11:25:53;;;;;;;43.70;25.77;;;;;;;;;;5073158;28;20028;-53
2020/12/21 11:28:19;;;;;;;45.40;25.80;;;;;;;;;;5072992;28;20028;-54
2020/12/21 11:30:45;;;;;;;46.22;27.13;;;;;;;;;;5073076;28;20016;-53
2020/12/21 11:33:11;;;;;;;39.38;23.23;;;;;;;;;;5072597;28;20025;-53
2020/12/21 11:35:37;;;;;;;50.30;27.65;;;;;;;;;;5072901;28;20051;-53
2020/12/21 11:38:03;;;;;;;48.45;27.02;;;;;;;;;;5071908;28;20029;-53
2020/12/21 11:40:29;;;;;;;43.30;24.27;;;;;;;;;;5072914;28;20033;-53
2020/12/21 11:42:55;;;;;;;56.08;30.30;;;;;;;;;;5067824;28;20028;-54
2020/12/21 11:45:22;;;;;;;47.00;26.30;;;;;;;;;;5072444;28;20035;-55
2020/12/21 11:47:48;;;;;;;60.90;30.48;;;;;;;;;;5072981;28;20029;-53
2020/12/21 11:50:14;;;;;;;49.55;27.52;;;;;;;;;;5072906;28;20074;-54
2020/12/21 11:52:41;;;;;;;49.40;27.35;;;;;;;;;;5072357;28;20017;-53
2020/12/21 11:55:07;;;;;;;56.42;31.60;;;;;;;;;;5072269;28;20040;-54
2020/12/21 11:57:33;;;;;;;54.45;28.10;;;;;;;;;;5072241;28;20099;-53
2020/12/21 11:59:59;;;;;;;49.25;27.77;;;;;;;;;;5072045;28;20071;-52
2020/12/21 12:02:26;;;;;;;44.42;25.15;;;;;;;;;;5072571;28;20410;-56
2020/12/21 12:04:52;;;;;;;43.63;24.65;;;;;;;;;;5072828;28;20069;-54
2020/12/21 12:07:18;;;;;;;49.33;27.80;;;;;;;;;;5072660;28;20020;-53
2020/12/21 12:09:44;;;;;;;51.97;29.25;;;;;;;;;;5072739;28;20358;-54
2020/12/21 12:12:10;;;;;;;59.40;32.75;;;;;;;;;;5072206;28;20035;-53
2020/12/21 12:14:36;;;;;;;53.90;28.77;;;;;;;;;;5072427;28;20096;-53
2020/12/21 12:17:02;;;;;;;44.83;26.60;;;;;;;;;;5072607;28;20102;-55
2020/12/21 12:19:28;;;;;;;58.75;29.90;;;;;;;;;;5072316;28;20476;-53
2020/12/21 12:21:55;;;;;;;51.50;28.95;;;;;;;;;;5072612;28;20422;-53
2020/12/21 12:24:22;;;;;;;60.42;34.03;;;;;;;;;;5072028;28;20066;-55
2020/12/21 12:26:48;;;;;;;57.47;31.73;;;;;;;;;;5070115;28;20033;-52
2020/12/21 12:29:14;;;;;;;53.53;29.42;;;;;;;;;;5071949;28;20427;-55
2020/12/21 12:31:40;;;;;;;60.03;32.75;;;;;;;;;;5072225;28;20024;-53
2020/12/21 12:34:06;;;;;;;48.60;27.67;;;;;;;;;;5072309;28;20033;-55
2020/12/21 12:36:32;;;;;;;57.13;32.72;;;;;;;;;;5072067;28;20101;-53
2020/12/21 12:38:59;;;;;;;55.88;31.17;;;;;;;;;;5072148;28;20052;-54
2020/12/21 12:41:25;;;;;;;50.53;30.58;;;;;;;;;;5072303;28;20078;-54
2020/12/21 12:43:51;;;;;;;44.88;25.45;;;;;;;;;;5071747;28;20070;-53
2020/12/21 12:46:17;;;;;;;48.42;27.20;;;;;;;;;;5072285;28;20032;-53
2020/12/21 12:48:43;;;;;;;39.67;23.65;;;;;;;;;;5072211;28;20393;-54
2020/12/21 12:51:09;;;;;;;45.40;25.23;;;;;;;;;;5072251;28;20081;-53
2020/12/21 12:53:36;;;;;;;42.85;24.73;;;;;;;;;;5072006;28;20059;-54
2020/12/21 12:56:05;;;;;;;38.88;23.50;;;;;;;;;;5071514;28;20489;-53
2020/12/21 12:58:31;;;;;;;53.13;32.80;;;;;;;;;;5072087;28;20097;-54
2020/12/21 13:00:57;;;;;;;56.78;34.90;;;;;;;;;;5071231;28;20498;-54
2020/12/21 13:03:23;;;;;;;46.38;26.15;;;;;;;;;;5071846;28;20021;-54
2020/12/21 13:05:49;;;;;;;38.90;23.52;;;;;;;;;;5072309;28;20369;-54
2020/12/21 13:08:15;;;;;;;40.65;22.25;;;;;;;;;;5071525;28;20027;-53
2020/12/21 13:10:41;;;;;;;54.72;32.53;;;;;;;;;;5071802;28;20029;-53
2020/12/21 13:13:08;;;;;;;47.80;28.15;;;;;;;;;;5071900;28;20107;-53
2020/12/21 13:15:34;;;;;;;65.97;38.33;;;;;;;;;;5071490;28;20025;-51
2020/12/21 13:18:00;;;;;;;61.08;33.78;;;;;;;;;;5071521;28;20050;-55
2020/12/21 13:20:27;;;;;;;84.05;44.08;;;;;;;;;;5071492;28;20033;-55
2020/12/21 13:25:35;;;;;;;74.07;39.63;;;;;;;;;;5062162;26;20106;-54
2020/12/21 13:28:01;;;;;;;67.07;39.33;;;;;;;;;;5071117;28;20024;-56
2020/12/21 13:30:27;;;;;;;72.55;39.22;;;;;;;;;;5071047;28;20048;-54
2020/12/21 13:32:53;;;;;;;61.83;35.42;;;;;;;;;;5069746;28;20111;-53
2020/12/21 13:35:19;;;;;;;45.70;27.13;;;;;;;;;;5061775;28;20032;-55
2020/12/21 13:37:46;;;;;;;69.35;38.38;;;;;;;;;;5066262;28;20028;-55
2020/12/21 13:40:12;;;;;;;78.65;41.15;;;;;;;;;;5071193;28;20090;-54
2020/12/21 13:42:38;;;;;;;57.35;33.53;;;;;;;;;;5070066;28;20024;-54
2020/12/21 13:45:06;;;;;;;45.42;26.15;;;;;;;;;;5053340;28;20388;-54
2020/12/21 13:47:32;;;;;;;44.05;24.85;;;;;;;;;;5071549;28;20028;-56
2020/12/21 13:49:58;;;;;;;45.30;26.08;;;;;;;;;;5071393;28;20032;-55
2020/12/21 13:52:24;;;;;;;47.83;25.90;;;;;;;;;;5071506;28;20033;-55
2020/12/21 13:54:51;;;;;;;52.30;25.27;;;;;;;;;;5073232;28;20060;-56
2020/12/21 13:57:17;;;;;;;49.78;28.42;;;;;;;;;;5074282;28;20595;-55
2020/12/21 13:59:43;;;;;;;57.85;29.92;;;;;;;;;;5074731;28;20397;-56
2020/12/21 14:02:09;;;;;;;50.40;28.13;;;;;;;;;;5075194;28;20487;-56
2020/12/21 14:04:35;;;;;;;52.13;28.92;;;;;;;;;;5075113;28;20035;-56
2020/12/21 14:07:01;;;;;;;47.40;24.50;;;;;;;;;;5074870;28;20013;-56
2020/12/21 14:09:28;;;;;;;45.58;25.50;;;;;;;;;;5074293;28;20024;-54
2020/12/21 14:11:54;;;;;;;46.30;25.00;;;;;;;;;;5072915;28;20027;-57
2020/12/21 14:14:20;;;;;;;39.50;23.58;;;;;;;;;;5073913;28;20056;-56
2020/12/21 14:16:46;;;;;;;46.60;26.33;;;;;;;;;;5073954;28;20027;-55